createdAt,value
2022-09-10T00:06:55.597Z,320.90
2022-09-10T00:13:57.811Z,316.92
2022-09-10T00:20:59.643Z,314.50
2022-09-10T00:28:02.073Z,326.45
2022-09-10T00:35:03.906Z,319.58
2022-09-10T00:42:05.533Z,331.55
2022-09-10T00:49:17.734Z,346.98
2022-09-10T00:56:19.382Z,356.48
2022-09-10T01:03:25.324Z,379.08
2022-09-10T01:10:32.527Z,385.65
2022-09-10T01:17:55.867Z,380.15
2022-09-10T01:25:06.974Z,371.98
2022-09-10T01:32:15.404Z,375.75
2022-09-10T01:39:22.027Z,375.38
2022-09-10T01:46:37.948Z,368.05
2022-09-10T01:53:43.453Z,374.38
2022-09-10T02:00:49.390Z,384.15
2022-09-10T02:07:53.352Z,395.23
2022-09-10T02:14:56.291Z,381.45
2022-09-10T02:22:18.121Z,384.45
2022-09-10T02:29:19.667Z,361.90
2022-09-10T02:36:21.554Z,375.45
2022-09-10T02:43:23.307Z,412.70
2022-09-10T02:50:25.137Z,381.48
2022-09-10T02:57:26.943Z,360.63
2022-09-10T03:04:28.782Z,359.50
2022-09-10T03:11:31.191Z,350.52
2022-09-10T03:18:35.218Z,347.35
2022-09-10T03:25:36.987Z,358.52
2022-09-10T03:32:39.564Z,361.25
2022-09-10T03:39:43.449Z,374.83
2022-09-10T03:46:47.952Z,382.08
2022-09-10T03:53:52.103Z,369.25
2022-09-10T04:00:55.705Z,405.52
2022-09-10T04:08:02.569Z,416.55
2022-09-10T04:15:08.050Z,350.50
2022-09-10T04:22:10.117Z,373.17
2022-09-10T04:29:14.424Z,436.23
2022-09-10T04:36:17.139Z,406.05
2022-09-10T04:43:19.276Z,358.48
2022-09-10T04:50:21.890Z,356.23
2022-09-10T04:57:45.921Z,406.27
2022-09-10T05:04:47.647Z,339.63
2022-09-10T05:11:49.923Z,344.23
2022-09-10T05:18:54.356Z,398.92
2022-09-10T05:25:56.899Z,429.10
2022-09-10T05:33:01.709Z,406.40
2022-09-10T05:40:06.934Z,337.05
2022-09-10T05:47:08.883Z,367.02
2022-09-10T05:54:11.506Z,460.48
2022-09-10T06:01:14.262Z,425.95
2022-09-10T06:08:18.763Z,348.70
2022-09-10T06:15:21.079Z,349.02
2022-09-10T06:22:23.956Z,330.67
2022-09-10T06:29:26.805Z,335.20
2022-09-10T06:36:29.234Z,323.27
2022-09-10T06:43:36.599Z,316.70
2022-09-10T06:50:57.498Z,335.00
2022-09-10T06:58:05.010Z,333.00
2022-09-10T07:05:08.247Z,304.75
2022-09-10T07:12:11.818Z,286.20
2022-09-10T07:19:17.258Z,266.08
2022-09-10T07:26:20.369Z,271.17
2022-09-10T07:33:24.852Z,263.52
2022-09-10T07:40:27.816Z,291.98
2022-09-10T07:47:29.573Z,305.58
2022-09-10T07:54:32.070Z,305.63
2022-09-10T08:01:35.101Z,288.48
2022-09-10T08:08:38.514Z,253.63
2022-09-10T08:15:43.811Z,232.48
2022-09-10T08:22:48.911Z,203.05
2022-09-10T08:29:50.706Z,180.75
2022-09-10T08:36:54.334Z,143.60
2022-09-10T08:44:03.298Z,111.70
2022-09-10T08:51:15.902Z,73.15
2022-09-10T08:58:19.020Z,64.15
2022-09-10T09:05:23.035Z,37.55
2022-09-10T09:12:41.954Z,20.42
2022-09-10T09:20:06.496Z,17.85
2022-09-10T09:27:17.386Z,16.13
2022-09-10T09:34:45.711Z,17.75
2022-09-10T09:42:02.533Z,11.48
2022-09-10T09:49:04.795Z,29.27
2022-09-10T09:56:15.382Z,12.18
2022-09-10T10:03:20.765Z,10.13
2022-09-10T10:10:26.465Z,15.55
2022-09-10T10:17:30.195Z,16.77
2022-09-10T10:24:32.886Z,14.90
2022-09-10T10:31:42.160Z,17.55
2022-09-10T10:39:26.079Z,8.85
2022-09-10T10:46:48.635Z,9.85
2022-09-10T10:54:24.531Z,14.25
2022-09-10T11:01:30.038Z,13.13
2022-09-10T11:08:42.990Z,13.75
2022-09-10T11:15:46.464Z,12.60
2022-09-10T11:23:02.006Z,8.45
2022-09-10T11:30:16.220Z,13.48
2022-09-10T11:37:45.261Z,13.63
2022-09-10T11:44:56.074Z,14.80
2022-09-10T11:51:57.623Z,15.63
2022-09-10T11:59:35.302Z,12.10
2022-09-10T12:07:07.450Z,14.68
2022-09-10T12:14:15.103Z,7.25
2022-09-10T12:21:38.047Z,11.00
2022-09-10T12:28:42.513Z,8.52
2022-09-10T12:35:46.455Z,10.60
2022-09-10T12:42:48.060Z,13.15
2022-09-10T12:49:57.159Z,11.07
2022-09-10T12:57:03.847Z,11.85
2022-09-10T13:04:05.452Z,263.17
2022-09-10T13:11:18.674Z,112.68
2022-09-10T13:18:27.537Z,13.40
2022-09-10T13:25:42.627Z,10.23
2022-09-10T13:32:48.221Z,9.50
2022-09-10T13:40:20.205Z,11.13
2022-09-10T13:47:33.382Z,12.30
2022-09-10T13:54:39.467Z,9.70
2022-09-10T14:01:52.057Z,11.73
2022-09-10T14:08:57.990Z,9.48
2022-09-10T14:16:00.083Z,8.25
2022-09-10T14:23:06.283Z,12.00
2022-09-10T14:30:23.181Z,15.10
2022-09-10T14:37:36.861Z,17.48
2022-09-10T14:44:42.041Z,14.30
2022-09-10T14:51:43.725Z,14.70
2022-09-10T14:58:45.938Z,9.90
2022-09-10T15:05:47.630Z,10.50
2022-09-10T15:12:51.985Z,11.30
2022-09-10T15:19:55.188Z,12.38
2022-09-10T15:26:56.840Z,12.27
2022-09-10T15:33:58.431Z,12.77
2022-09-10T15:41:16.894Z,9.90
2022-09-10T15:48:18.472Z,18.02
2022-09-10T15:55:20.139Z,12.82
2022-09-10T16:02:21.758Z,12.35
2022-09-10T16:09:23.493Z,10.10
2022-09-10T16:16:26.727Z,15.07
2022-09-10T16:23:28.268Z,13.52
2022-09-10T16:30:29.909Z,14.13
2022-09-10T16:37:33.309Z,14.38
2022-09-10T16:44:34.949Z,14.32
2022-09-10T16:51:36.570Z,14.07
2022-09-10T16:58:38.786Z,21.75
2022-09-10T17:05:40.490Z,17.70
2022-09-10T17:12:43.719Z,20.23
2022-09-10T17:19:45.334Z,27.23
2022-09-10T17:26:46.975Z,29.98
2022-09-10T17:33:48.999Z,28.13
2022-09-10T17:40:55.352Z,35.60
2022-09-10T17:47:57.320Z,246.43
2022-09-10T17:54:58.885Z,40.25
2022-09-10T18:02:01.683Z,41.88
2022-09-10T18:09:03.566Z,38.22
2022-09-10T18:16:06.296Z,47.30
2022-09-10T18:23:08.218Z,47.88
2022-09-10T18:30:10.431Z,54.80
2022-09-10T18:37:13.500Z,84.00
2022-09-10T18:44:16.850Z,57.22
2022-09-10T18:51:20.393Z,57.80
2022-09-10T18:58:21.946Z,63.38
2022-09-10T19:05:23.535Z,70.85
2022-09-10T19:12:25.097Z,70.32
2022-09-10T19:19:28.418Z,76.32
2022-09-10T19:26:32.461Z,77.70
2022-09-10T19:33:36.045Z,72.40
2022-09-10T19:40:37.756Z,71.32
2022-09-10T19:47:40.200Z,75.55
2022-09-10T19:54:41.863Z,73.38
2022-09-10T20:01:45.779Z,78.85
2022-09-10T20:08:50.229Z,88.82
2022-09-10T20:15:51.819Z,100.88
2022-09-10T20:23:00.201Z,110.20
2022-09-10T20:30:02.625Z,106.78
2022-09-10T20:37:04.266Z,94.32
2022-09-10T20:44:06.093Z,96.70
2022-09-10T20:51:07.728Z,108.40
2022-09-10T20:58:09.273Z,110.05
2022-09-10T21:05:10.925Z,116.47
2022-09-10T21:12:13.085Z,111.00
2022-09-10T21:19:15.512Z,114.25
2022-09-10T21:26:19.751Z,120.05
2022-09-10T21:33:21.605Z,117.32
2022-09-10T21:40:24.151Z,124.47
2022-09-10T21:47:27.089Z,129.85
2022-09-10T21:54:28.649Z,132.43
2022-09-10T22:01:30.876Z,143.10
2022-09-10T22:08:33.216Z,143.20
2022-09-10T22:15:41.753Z,165.57
2022-09-10T22:22:44.362Z,185.85
2022-09-10T22:29:45.899Z,204.88
2022-09-10T22:36:48.361Z,190.23
2022-09-10T22:43:50.354Z,191.30
2022-09-10T22:50:51.906Z,200.23
2022-09-10T22:57:53.846Z,212.60
2022-09-10T23:04:55.707Z,211.27
2022-09-10T23:11:57.328Z,211.25
2022-09-10T23:19:00.170Z,223.95
2022-09-10T23:26:08.889Z,224.43
2022-09-10T23:33:10.463Z,232.13
2022-09-10T23:40:13.733Z,233.30
2022-09-10T23:47:15.340Z,236.45
2022-09-10T23:54:16.981Z,243.25
